createdAt,value
2018-12-25T00:06:27.265Z,73.90
2018-12-25T00:13:10.685Z,73.30
2018-12-25T00:19:54.101Z,74.00
2018-12-25T00:26:37.525Z,74.10
2018-12-25T00:33:20.969Z,73.50
2018-12-25T00:40:04.629Z,74.00
2018-12-25T00:46:48.077Z,74.40
2018-12-25T00:53:31.517Z,75.00
2018-12-25T01:00:14.936Z,75.70
2018-12-25T01:06:58.392Z,76.20
2018-12-25T01:13:41.817Z,77.20
2018-12-25T01:20:25.266Z,77.30
2018-12-25T01:27:08.681Z,78.50
2018-12-25T01:33:52.108Z,80.60
2018-12-25T01:40:35.567Z,80.40
2018-12-25T01:47:18.982Z,80.50
2018-12-25T01:54:02.425Z,80.70
2018-12-25T02:00:45.861Z,80.80
2018-12-25T02:07:29.289Z,81.80
2018-12-25T02:14:12.701Z,86.50
2018-12-25T02:20:56.146Z,86.40
2018-12-25T02:27:39.577Z,84.70
2018-12-25T02:34:23.015Z,83.00
2018-12-25T02:41:06.446Z,83.70
2018-12-25T02:47:49.870Z,82.50
2018-12-25T02:54:33.305Z,82.40
2018-12-25T03:01:16.726Z,83.00
2018-12-25T03:08:00.142Z,82.40
2018-12-25T03:14:43.607Z,80.50
2018-12-25T03:21:27.070Z,80.80
2018-12-25T03:28:10.503Z,80.70
2018-12-25T03:34:53.928Z,80.20
2018-12-25T03:41:37.351Z,79.70
2018-12-25T03:48:20.785Z,79.20
2018-12-25T03:55:04.214Z,79.00
2018-12-25T04:01:47.650Z,78.40
2018-12-25T04:08:31.072Z,78.80
2018-12-25T04:15:14.518Z,80.00
2018-12-25T04:21:57.977Z,81.40
2018-12-25T04:28:41.411Z,81.20
2018-12-25T04:35:24.846Z,81.20
2018-12-25T04:42:08.272Z,81.30
2018-12-25T04:48:51.710Z,82.80
2018-12-25T04:55:35.158Z,83.40
2018-12-25T05:02:18.589Z,83.30
2018-12-25T05:09:02.045Z,83.60
2018-12-25T05:15:45.474Z,84.30
2018-12-25T05:22:28.901Z,84.10
2018-12-25T05:29:12.338Z,84.60
2018-12-25T05:35:55.878Z,85.00
2018-12-25T05:42:39.321Z,85.20
2018-12-25T05:49:22.789Z,85.40
2018-12-25T05:56:06.221Z,85.40
2018-12-25T06:02:49.658Z,86.20
2018-12-25T06:09:33.093Z,86.70
2018-12-25T06:16:16.537Z,87.30
2018-12-25T06:23:00.009Z,88.00
2018-12-25T06:29:43.433Z,88.50
2018-12-25T06:36:26.877Z,88.40
2018-12-25T06:43:10.292Z,88.40
2018-12-25T06:49:53.715Z,88.30
2018-12-25T06:56:37.190Z,88.20
2018-12-25T07:03:20.617Z,88.00
2018-12-25T07:10:04.240Z,88.00
2018-12-25T07:16:47.729Z,87.60
2018-12-25T07:23:31.182Z,87.10
2018-12-25T07:30:14.640Z,87.00
2018-12-25T07:36:58.073Z,85.90
2018-12-25T07:43:41.518Z,84.30
2018-12-25T07:50:24.948Z,84.00
2018-12-25T07:57:08.365Z,83.20
2018-12-25T08:03:51.788Z,83.40
2018-12-25T08:10:35.256Z,82.50
2018-12-25T08:17:18.682Z,80.70
2018-12-25T08:24:02.121Z,81.30
2018-12-25T08:30:45.562Z,79.60
2018-12-25T08:37:29.017Z,78.80
2018-12-25T08:44:12.445Z,78.70
2018-12-25T08:50:55.873Z,75.30
2018-12-25T08:57:39.293Z,73.20
2018-12-25T09:04:22.713Z,71.20
2018-12-25T09:11:06.177Z,71.00
2018-12-25T09:17:49.748Z,71.60
2018-12-25T09:24:33.309Z,71.40
2018-12-25T09:31:17.026Z,70.30
2018-12-25T09:38:00.486Z,69.00
2018-12-25T09:44:43.901Z,66.40
2018-12-25T09:51:27.375Z,66.80
2018-12-25T09:58:10.777Z,66.50
2018-12-25T10:04:54.212Z,65.80
2018-12-25T10:11:44.312Z,66.00
2018-12-25T10:18:21.109Z,66.00
2018-12-25T10:25:04.523Z,64.00
2018-12-25T10:31:48.082Z,63.50
2018-12-25T10:38:31.506Z,63.00
2018-12-25T10:45:14.921Z,62.30
2018-12-25T10:51:58.337Z,61.80
2018-12-25T10:58:41.769Z,61.60
2018-12-25T11:05:25.185Z,60.60
2018-12-25T11:12:08.634Z,61.10
2018-12-25T11:18:52.062Z,60.40
2018-12-25T11:25:35.501Z,60.80
2018-12-25T11:32:19.066Z,58.90
2018-12-25T11:39:02.537Z,56.80
2018-12-25T11:45:45.954Z,57.70
2018-12-25T11:52:29.377Z,58.70
2018-12-25T11:59:12.793Z,59.60
2018-12-25T12:05:56.211Z,60.10
2018-12-25T12:12:41.882Z,58.20
2018-12-25T12:19:25.294Z,57.30
2018-12-25T12:26:08.729Z,56.00
2018-12-25T12:32:52.273Z,55.60
2018-12-25T12:39:35.686Z,56.90
2018-12-25T12:46:19.118Z,58.60
2018-12-25T12:53:02.553Z,59.60
2018-12-25T12:59:45.969Z,59.40
2018-12-25T13:06:29.385Z,60.10
2018-12-25T13:13:12.801Z,61.00
2018-12-25T13:19:56.222Z,60.90
2018-12-25T13:26:39.641Z,61.80
2018-12-25T13:33:23.282Z,63.10
2018-12-25T13:40:06.753Z,63.70
2018-12-25T13:46:51.666Z,62.80
2018-12-25T13:53:33.616Z,62.60
2018-12-25T14:00:17.026Z,62.10
2018-12-25T14:07:00.441Z,63.20
2018-12-25T14:13:43.873Z,63.10
2018-12-25T14:20:27.288Z,62.80
2018-12-25T14:27:10.725Z,62.90
2018-12-25T14:33:54.269Z,64.40
2018-12-25T14:40:37.896Z,64.80
2018-12-25T14:47:21.315Z,65.80
2018-12-25T14:54:04.753Z,66.70
2018-12-25T15:00:48.226Z,66.20
2018-12-25T15:07:31.645Z,67.10
2018-12-25T15:14:15.051Z,68.00
2018-12-25T15:20:58.461Z,69.30
2018-12-25T15:27:41.873Z,70.30
2018-12-25T15:34:25.410Z,71.20
2018-12-25T15:41:08.828Z,71.40
2018-12-25T15:47:52.237Z,72.50
2018-12-25T15:54:35.670Z,73.20
2018-12-25T16:01:19.330Z,74.20
2018-12-25T16:08:02.745Z,73.60
2018-12-25T16:14:46.189Z,74.60
2018-12-25T16:21:29.616Z,75.00
2018-12-25T16:28:13.045Z,75.40
2018-12-25T16:34:56.677Z,75.40
2018-12-25T16:41:40.118Z,75.70
2018-12-25T16:48:23.557Z,76.20
2018-12-25T16:55:07.001Z,76.30
2018-12-25T17:01:50.425Z,76.30
2018-12-25T17:08:33.851Z,75.90
2018-12-25T17:15:17.275Z,75.10
2018-12-25T17:22:00.701Z,75.70
2018-12-25T17:28:44.122Z,76.10
2018-12-25T17:35:27.681Z,75.80
2018-12-25T17:42:11.117Z,75.90
2018-12-25T17:48:54.545Z,75.70
2018-12-25T17:55:37.981Z,75.00
2018-12-25T18:02:21.440Z,74.20
2018-12-25T18:09:06.185Z,73.20
2018-12-25T18:15:49.608Z,72.90
2018-12-25T18:22:33.025Z,73.20
2018-12-25T18:29:16.445Z,73.90
2018-12-25T18:36:00.001Z,74.00
2018-12-25T18:42:43.410Z,74.30
2018-12-25T18:49:26.834Z,74.30
2018-12-25T18:56:10.299Z,73.20
2018-12-25T19:02:53.718Z,73.30
2018-12-25T19:09:37.124Z,73.20
2018-12-25T19:16:20.549Z,72.60
2018-12-25T19:23:03.965Z,72.70
2018-12-25T19:29:47.373Z,72.40
2018-12-25T19:36:31.006Z,73.10
2018-12-25T19:43:14.418Z,72.00
2018-12-25T19:49:57.837Z,71.00
2018-12-25T19:56:41.264Z,71.70
2018-12-25T20:03:31.444Z,71.20
2018-12-25T20:10:36.406Z,71.20
2018-12-25T20:17:41.101Z,71.70
2018-12-25T20:26:37.769Z,71.10
2018-12-25T20:34:28.129Z,71.40
2018-12-25T20:41:58.405Z,71.30
2018-12-25T20:48:53.958Z,70.80
2018-12-25T20:56:46.446Z,70.20
2018-12-25T21:04:40.046Z,70.40
2018-12-25T21:12:04.475Z,70.30
2018-12-25T21:20:02.197Z,71.10
2018-12-25T21:26:56.758Z,70.70
2018-12-25T21:33:40.965Z,71.30
2018-12-25T21:40:25.155Z,71.20
2018-12-25T21:47:08.752Z,71.30
2018-12-25T21:53:53.198Z,70.40
2018-12-25T22:00:37.709Z,70.40
2018-12-25T22:07:21.126Z,70.60
2018-12-25T22:14:05.176Z,70.50
2018-12-25T22:20:48.590Z,69.50
2018-12-25T22:27:32.006Z,69.30
2018-12-25T22:34:21.488Z,69.10
2018-12-25T22:41:05.627Z,69.30
2018-12-25T22:47:50.121Z,68.50
2018-12-25T22:54:34.571Z,68.30
2018-12-25T23:01:19.204Z,67.20
2018-12-25T23:08:02.621Z,67.40
2018-12-25T23:14:46.041Z,66.50
2018-12-25T23:21:30.017Z,66.70
2018-12-25T23:28:13.447Z,67.40
2018-12-25T23:34:57.522Z,66.50
2018-12-25T23:41:41.688Z,66.40
2018-12-25T23:48:26.113Z,65.50
2018-12-25T23:55:09.546Z,66.30
